Time;durP1;ratioP1;P1;durP2;ratioP2;P2;SDS_P1;SDS_P2;PMS_P1;PMS_P2;Temp;Humidity;BMP_temperature;BMP_pressure;BME280_temperature;BME280_humidity;BME280_pressure;Samples;Min_cycle;Max_cycle;Signal;HPM_P1;HPM_P2
2021/12/06 00:02:26;;;;;;;46.70;28.40;;;;;;;-1.14;83.63;98590.94;434524;1315;142368;-68
2021/12/06 00:12:33;;;;;;;52.30;29.90;;;;;;;-1.17;83.69;98597.75;433873;1315;141982;-68
2021/12/06 00:22:42;;;;;;;49.20;30.50;;;;;;;-1.20;83.74;98607.31;431844;1313;142988;-67
2021/12/06 00:32:48;;;;;;;48.40;28.30;;;;;;;-1.27;83.71;98618.83;433931;1313;165141;-68
2021/12/06 00:42:54;;;;;;;54.50;31.10;;;;;;;-1.30;83.85;98625.10;433559;1312;141722;-68
2021/12/06 00:53:00;;;;;;;48.60;27.70;;;;;;;-1.24;83.94;98636.11;430969;1312;142981;-67
2021/12/06 01:03:08;;;;;;;50.70;30.20;;;;;;;-1.21;84.17;98654.55;425045;1313;141854;-68
2021/12/06 01:13:14;;;;;;;43.00;26.90;;;;;;;-1.14;83.87;98656.73;421150;1313;141770;-67
2021/12/06 01:23:25;;;;;;;48.40;26.30;;;;;;;-1.11;84.09;98660.94;420105;1313;141473;-67
2021/12/06 01:44:19;;;;;;;43.10;25.70;;;;;;;-1.09;84.22;98668.27;425455;1313;151886;-68
2021/12/06 01:54:25;;;;;;;44.40;26.40;;;;;;;-1.13;84.00;98665.99;427226;1313;141362;-67
2021/12/06 02:04:33;;;;;;;42.80;24.10;;;;;;;-1.20;84.43;98662.24;433928;1313;141940;-67
2021/12/06 02:14:49;;;;;;;52.90;30.10;;;;;;;-1.22;84.45;98660.75;434719;1312;143139;-68
2021/12/06 02:24:56;;;;;;;42.60;23.80;;;;;;;-1.23;84.51;98653.59;431674;1312;141414;-68
2021/12/06 02:35:04;;;;;;;44.40;24.60;;;;;;;-1.31;84.70;98650.56;434598;1312;187555;-68
2021/12/06 02:45:12;;;;;;;45.60;25.60;;;;;;;-1.38;84.62;98660.05;418160;1313;142165;-68
2021/12/06 02:55:30;;;;;;;53.80;26.60;;;;;;;-1.38;84.81;98674.14;434099;1313;143646;-68
2021/12/06 03:05:36;;;;;;;41.40;23.60;;;;;;;-1.42;85.04;98676.98;434176;1313;142548;-67
2021/12/06 03:15:42;;;;;;;45.90;24.30;;;;;;;-1.36;85.17;98677.84;431063;1313;143711;-68
2021/12/06 03:25:48;;;;;;;44.70;23.70;;;;;;;-1.40;85.02;98670.05;433152;1313;141502;-68
2021/12/06 03:35:54;;;;;;;38.80;22.70;;;;;;;-1.42;85.20;98682.31;426462;1312;143018;-66
2021/12/06 03:46:01;;;;;;;39.50;25.00;;;;;;;-1.39;85.22;98700.25;417561;1312;142328;-67
2021/12/06 03:56:07;;;;;;;38.90;23.60;;;;;;;-1.41;85.30;98710.77;434164;1313;142368;-67
2021/12/06 04:06:14;;;;;;;43.30;23.00;;;;;;;-1.39;85.15;98724.29;432940;1313;142259;-67
2021/12/06 04:16:20;;;;;;;40.70;21.30;;;;;;;-1.39;85.02;98746.27;434551;1312;142589;-68
2021/12/06 04:26:26;;;;;;;30.80;19.50;;;;;;;-1.37;85.15;98757.55;433196;1312;141947;-68
2021/12/06 04:36:32;;;;;;;33.40;20.00;;;;;;;-1.32;84.97;98767.51;433826;1312;142580;-67
2021/12/06 04:46:38;;;;;;;24.30;16.40;;;;;;;-1.25;84.82;98761.86;434589;1312;142222;-68
2021/12/06 04:56:49;;;;;;;25.50;15.70;;;;;;;-1.22;84.81;98757.82;433742;1313;141197;-67
2021/12/06 05:07:02;;;;;;;20.40;14.40;;;;;;;-1.23;84.59;98743.77;434531;1312;142008;-68
2021/12/06 05:17:08;;;;;;;16.70;11.80;;;;;;;-1.24;84.59;98740.00;434563;1313;141702;-68
2021/12/06 05:27:15;;;;;;;14.70;12.00;;;;;;;-1.22;84.54;98752.98;432450;1313;143386;-67
2021/12/06 05:37:21;;;;;;;15.60;9.90;;;;;;;-1.21;84.23;98763.44;434650;1312;144620;-67
2021/12/06 05:47:27;;;;;;;13.20;9.70;;;;;;;-1.20;84.37;98773.88;434633;1312;142087;-67
2021/12/06 05:57:33;;;;;;;13.30;9.20;;;;;;;-1.19;84.35;98781.42;433855;1312;142423;-68
2021/12/06 06:07:39;;;;;;;10.90;8.30;;;;;;;-1.19;84.17;98801.52;424442;1312;141612;-68
2021/12/06 06:17:47;;;;;;;12.30;7.60;;;;;;;-1.21;84.30;98821.67;433063;1313;141983;-67
2021/12/06 06:27:53;;;;;;;12.00;8.40;;;;;;;-1.21;84.25;98841.23;434711;1312;151484;-68
2021/12/06 06:37:59;;;;;;;14.30;9.70;;;;;;;-1.19;84.29;98860.25;434513;1309;141652;-69
2021/12/06 06:48:06;;;;;;;12.40;9.20;;;;;;;-1.16;84.30;98860.33;434053;1312;143997;-69
2021/12/06 06:58:12;;;;;;;18.60;10.30;;;;;;;-1.19;84.27;98861.96;427831;1313;141734;-70
2021/12/06 07:08:19;;;;;;;14.00;9.80;;;;;;;-1.21;84.60;98872.31;434628;1312;142077;-67
2021/12/06 07:18:24;;;;;;;14.20;8.90;;;;;;;-1.30;84.65;98858.30;433940;1312;142103;-70
2021/12/06 07:28:30;;;;;;;15.00;10.30;;;;;;;-1.29;84.59;98871.86;434591;1312;141780;-68
2021/12/06 07:38:42;;;;;;;15.10;11.00;;;;;;;-1.26;84.81;98887.92;433056;1312;142084;-63
2021/12/06 07:48:52;;;;;;;15.60;10.60;;;;;;;-1.28;84.91;98880.77;429691;1312;141762;-64
2021/12/06 07:58:58;;;;;;;19.40;11.40;;;;;;;-1.27;85.10;98883.64;428695;1312;142078;-63
2021/12/06 08:09:04;;;;;;;19.60;11.40;;;;;;;-1.26;84.93;98876.92;418470;1310;141765;-72
2021/12/06 08:19:11;;;;;;;19.90;12.00;;;;;;;-1.24;85.27;98868.45;418913;1309;143332;-65
2021/12/06 08:29:18;;;;;;;16.80;12.60;;;;;;;-1.24;85.16;98879.46;430464;1310;141167;-61
2021/12/06 08:39:24;;;;;;;24.00;14.00;;;;;;;-1.25;85.36;98906.77;419544;1312;142757;-68
2021/12/06 08:49:32;;;;;;;20.70;14.50;;;;;;;-1.26;85.22;98928.45;434414;1310;203095;-72
2021/12/06 08:59:38;;;;;;;17.90;12.90;;;;;;;-1.25;85.26;98932.02;434339;1312;143093;-69
2021/12/06 09:09:47;;;;;;;17.00;12.40;;;;;;;-1.25;85.33;98941.14;430899;1310;142359;-63
2021/12/06 09:19:53;;;;;;;16.60;12.40;;;;;;;-1.26;85.50;98948.38;433241;1312;142196;-71
2021/12/06 09:30:00;;;;;;;17.30;13.00;;;;;;;-1.28;85.25;98959.91;433090;1312;143012;-64
2021/12/06 09:40:08;;;;;;;17.90;12.50;;;;;;;-1.23;85.31;98966.66;434529;1310;141807;-65
2021/12/06 09:50:16;;;;;;;18.60;13.20;;;;;;;-1.19;85.23;98961.59;434642;1305;141568;-60
2021/12/06 10:00:26;;;;;;;22.90;15.00;;;;;;;-1.11;85.18;98962.77;433066;1312;142527;-65
2021/12/06 10:10:33;;;;;;;23.60;15.60;;;;;;;-1.09;85.40;98973.02;433992;1312;141432;-64
2021/12/06 10:20:43;;;;;;;22.00;14.20;;;;;;;-1.05;85.14;98964.33;432954;1312;142248;-65
2021/12/06 10:30:54;;;;;;;19.90;14.00;;;;;;;-0.92;85.04;98951.43;431094;1314;141837;-65
2021/12/06 10:41:02;;;;;;;19.80;13.60;;;;;;;-0.76;85.04;98948.23;434351;1313;142567;-64
2021/12/06 10:51:23;;;;;;;19.40;13.80;;;;;;;-0.61;84.50;98954.36;432317;1313;143001;-61
2021/12/06 11:01:33;;;;;;;23.40;14.80;;;;;;;-0.67;84.40;98965.17;432952;1313;142449;-68
2021/12/06 11:11:43;;;;;;;20.00;14.50;;;;;;;-0.83;83.94;98955.32;429853;1313;141843;-65
2021/12/06 11:21:53;;;;;;;19.40;13.50;;;;;;;-0.97;84.17;98951.39;428362;1313;143210;-63
2021/12/06 11:32:08;;;;;;;21.90;15.20;;;;;;;-1.15;84.16;98949.63;422974;1313;142427;-61
2021/12/06 11:42:17;;;;;;;25.30;17.30;;;;;;;-1.27;84.39;98955.77;432901;1313;420422;-70
2021/12/06 11:52:27;;;;;;;28.70;17.50;;;;;;;-1.38;84.25;98960.17;427313;1311;143533;-64
2021/12/06 12:02:43;;;;;;;27.40;19.20;;;;;;;-1.39;84.42;98970.17;428332;1314;142498;-58
2021/12/06 12:12:56;;;;;;;29.20;18.80;;;;;;;-1.42;84.45;98968.52;433826;1313;141578;-63
2021/12/06 12:23:08;;;;;;;34.40;20.30;;;;;;;-1.53;84.67;98978.56;425391;1314;142285;-68
2021/12/06 12:33:19;;;;;;;41.80;24.50;;;;;;;-1.60;84.58;98989.89;432230;1313;141822;-68
2021/12/06 12:43:27;;;;;;;34.80;22.00;;;;;;;-1.66;84.66;98994.33;434331;1312;141387;-68
2021/12/06 12:53:57;;;;;;;31.40;21.20;;;;;;;-1.70;84.63;98998.52;433789;1308;141668;-69
2021/12/06 13:04:04;;;;;;;34.20;21.40;;;;;;;-1.69;84.35;99006.92;421688;1312;141685;-69
2021/12/06 13:14:29;;;;;;;42.20;24.70;;;;;;;-1.71;84.34;99012.10;432823;1312;142087;-68
2021/12/06 13:24:56;;;;;;;30.10;19.70;;;;;;;-1.74;84.24;99013.05;431646;1313;141678;-68
2021/12/06 13:35:25;;;;;;;33.90;20.60;;;;;;;-1.72;84.34;99019.86;434534;1314;142474;-68
2021/12/06 13:45:36;;;;;;;33.10;22.10;;;;;;;-1.65;84.33;99034.97;433798;1312;141776;-67
2021/12/06 13:55:43;;;;;;;38.50;23.10;;;;;;;-1.64;84.26;99035.65;434557;1312;141744;-68
2021/12/06 14:05:51;;;;;;;33.80;22.90;;;;;;;-1.76;83.84;99039.16;433892;1312;142768;-68
2021/12/06 14:16:02;;;;;;;39.30;23.70;;;;;;;-1.88;83.97;99054.88;434728;1312;142233;-68
2021/12/06 14:26:08;;;;;;;36.40;23.60;;;;;;;-1.96;83.82;99058.66;431315;1312;141387;-68
2021/12/06 14:36:14;;;;;;;31.80;20.60;;;;;;;-2.10;83.98;99055.34;427170;1312;142254;-69
2021/12/06 14:46:44;;;;;;;31.40;22.40;;;;;;;-2.19;83.93;99059.45;419234;1312;141125;-68
2021/12/06 14:56:57;;;;;;;36.60;23.00;;;;;;;-2.22;84.09;99059.35;432151;1310;142240;-63
2021/12/06 15:07:11;;;;;;;32.10;21.30;;;;;;;-2.24;83.88;99071.05;434515;1309;141364;-64
2021/12/06 15:17:17;;;;;;;32.30;21.70;;;;;;;-2.31;83.54;99087.82;433185;1310;141587;-63
2021/12/06 15:27:32;;;;;;;38.80;24.10;;;;;;;-2.33;83.56;99085.29;430916;1309;141787;-64
2021/12/06 15:37:39;;;;;;;34.80;21.50;;;;;;;-2.30;83.46;99094.50;434098;1313;142621;-63
2021/12/06 15:47:49;;;;;;;32.50;22.40;;;;;;;-2.28;83.51;99105.09;430421;1315;141812;-63
2021/12/06 15:58:01;;;;;;;35.20;20.70;;;;;;;-2.24;83.52;99131.08;434448;1312;141761;-63
2021/12/06 16:08:10;;;;;;;41.90;26.10;;;;;;;-2.25;83.42;99139.33;430235;1312;142895;-63
2021/12/06 16:18:19;;;;;;;41.60;24.10;;;;;;;-2.23;83.52;99150.09;422690;1313;142775;-64
2021/12/06 16:28:26;;;;;;;40.30;26.30;;;;;;;-2.22;83.75;99156.94;432514;1315;142791;-64
2021/12/06 16:38:36;;;;;;;38.80;22.90;;;;;;;-2.24;83.87;99164.17;430757;1318;143058;-59
2021/12/06 16:48:52;;;;;;;38.10;23.70;;;;;;;-2.28;83.95;99160.63;424480;1313;142459;-63
2021/12/06 16:59:09;;;;;;;43.10;23.90;;;;;;;-2.27;83.82;99164.39;434510;1312;143842;-63
2021/12/06 17:09:17;;;;;;;42.20;24.00;;;;;;;-2.26;84.02;99161.45;433464;1309;141331;-58
2021/12/06 17:19:27;;;;;;;42.90;23.50;;;;;;;-2.29;83.78;99161.17;433052;1315;141708;-59
2021/12/06 17:29:38;;;;;;;43.30;23.90;;;;;;;-2.32;83.98;99159.35;434496;1313;141147;-58
2021/12/06 17:39:47;;;;;;;35.20;22.40;;;;;;;-2.37;84.19;99163.04;420508;1314;143120;-57
2021/12/06 17:49:57;;;;;;;43.90;23.70;;;;;;;-2.49;84.28;99162.55;432121;1313;142072;-62
2021/12/06 18:00:04;;;;;;;50.10;23.80;;;;;;;-2.57;84.59;99162.52;427062;1313;142016;-58
2021/12/06 18:10:13;;;;;;;39.10;23.00;;;;;;;-2.62;84.79;99171.35;433991;1313;145316;-58
2021/12/06 18:20:21;;;;;;;41.30;25.20;;;;;;;-2.67;84.73;99172.46;431530;1313;141852;-57
2021/12/06 18:30:28;;;;;;;33.70;21.00;;;;;;;-2.85;84.80;99170.67;420298;1313;141304;-57
2021/12/06 18:40:45;;;;;;;35.40;21.40;;;;;;;-3.00;84.98;99166.98;434309;1313;141994;-58
2021/12/06 18:50:56;;;;;;;32.90;20.60;;;;;;;-3.02;85.09;99167.69;422811;1313;142200;-59
2021/12/06 19:01:04;;;;;;;33.50;20.50;;;;;;;-3.02;85.08;99175.91;433848;1312;142629;-59
2021/12/06 19:11:12;;;;;;;33.10;19.70;;;;;;;-2.98;85.23;99180.48;419336;1313;142124;-60
2021/12/06 19:21:20;;;;;;;31.40;20.60;;;;;;;-3.04;85.04;99182.63;424680;1313;142583;-60
2021/12/06 19:31:26;;;;;;;31.50;18.70;;;;;;;-3.12;85.05;99183.08;431474;1313;142303;-59
2021/12/06 19:41:33;;;;;;;31.40;20.70;;;;;;;-3.11;85.04;99193.70;418376;1310;411797;-60
2021/12/06 19:51:40;;;;;;;31.70;19.20;;;;;;;-3.08;84.97;99199.81;419312;1312;142483;-59
2021/12/06 20:01:45;;;;;;;;;;;;;;;-3.09;84.85;99204.27;428183;1313;142757;-60
2021/12/06 20:11:52;;;;;;;26.00;16.50;;;;;;;-3.11;84.72;99204.14;431664;1312;128561;-59
2021/12/06 20:21:59;;;;;;;30.70;19.00;;;;;;;-3.12;84.46;99212.52;425120;1312;142321;-61
2021/12/06 20:32:05;;;;;;;;;;;;;;;-3.15;84.51;99223.38;422341;1312;142439;-59
2021/12/06 20:42:12;;;;;;;25.10;15.80;;;;;;;-3.25;84.32;99216.13;427280;1313;128374;-64
2021/12/06 20:52:19;;;;;;;21.10;16.00;;;;;;;-3.27;84.40;99216.34;432581;1313;143791;-62
2021/12/06 21:02:27;;;;;;;26.60;16.90;;;;;;;-3.30;84.22;99211.41;433119;1313;142367;-62
2021/12/06 21:12:57;;;;;;;26.70;16.70;;;;;;;-3.32;84.28;99202.02;433000;1313;142109;-63
2021/12/06 21:23:02;;;;;;;28.80;18.00;;;;;;;-3.30;84.10;99202.33;432852;1313;141768;-62
2021/12/06 21:33:07;;;;;;;;;;;;;;;-3.29;84.06;99198.05;430998;1313;144369;-61
2021/12/06 21:43:14;;;;;;;26.30;16.50;;;;;;;-3.35;83.91;99190.42;433871;1309;127522;-61
2021/12/06 21:53:22;;;;;;;28.90;18.80;;;;;;;-3.30;83.87;99188.99;421537;1310;144628;-63
2021/12/06 22:03:37;;;;;;;24.20;15.70;;;;;;;-3.30;83.78;99194.46;431791;1313;145271;-61
2021/12/06 22:13:43;;;;;;;24.20;15.00;;;;;;;-3.31;83.51;99185.23;432333;1312;142892;-62
2021/12/06 22:23:50;;;;;;;26.60;18.00;;;;;;;-3.32;83.59;99188.85;427826;1313;143789;-61
2021/12/06 22:33:57;;;;;;;26.20;16.90;;;;;;;-3.30;83.48;99183.85;434430;1312;141889;-61
2021/12/06 22:44:04;;;;;;;27.50;19.30;;;;;;;-3.30;83.55;99175.11;432950;1312;142260;-61
2021/12/06 22:54:10;;;;;;;28.90;18.80;;;;;;;-3.31;83.63;99177.19;433933;1312;143974;-66
2021/12/06 23:04:17;;;;;;;21.90;14.80;;;;;;;-3.30;83.25;99179.39;434483;1313;145567;-61
2021/12/06 23:14:24;;;;;;;;;;;;;;;-3.26;83.31;99179.33;432125;1312;143360;-61
2021/12/06 23:24:30;;;;;;;17.10;12.20;;;;;;;-3.24;83.03;99171.27;431130;1312;129371;-61
2021/12/06 23:34:47;;;;;;;15.60;11.90;;;;;;;-3.31;82.88;99165.20;433363;1312;142609;-61
2021/12/06 23:55:18;;;;;;;20.70;13.60;;;;;;;-3.39;82.49;99165.66;433144;1315;143387;-61
